sensor_id;sensor_type;location;lat;lon;timestamp;P1;durP1;ratioP1;P2;durP2;ratioP2
11046;SDS011;5576;50.008;10.596;2023-07-20T00:00:52;4.15;;;3.13;;
11046;SDS011;5576;50.008;10.596;2023-07-20T00:03:19;4.60;;;3.25;;
11046;SDS011;5576;50.008;10.596;2023-07-20T00:05:50;3.28;;;2.75;;
11046;SDS011;5576;50.008;10.596;2023-07-20T00:08:17;4.72;;;3.35;;
11046;SDS011;5576;50.008;10.596;2023-07-20T00:10:43;4.77;;;3.10;;
11046;SDS011;5576;50.008;10.596;2023-07-20T00:13:11;4.65;;;3.15;;
11046;SDS011;5576;50.008;10.596;2023-07-20T00:15:37;4.70;;;3.33;;
11046;SDS011;5576;50.008;10.596;2023-07-20T00:18:03;4.15;;;3.05;;
11046;SDS011;5576;50.008;10.596;2023-07-20T00:20:30;4.13;;;2.92;;
11046;SDS011;5576;50.008;10.596;2023-07-20T00:22:56;5.35;;;3.75;;
11046;SDS011;5576;50.008;10.596;2023-07-20T00:25:23;4.70;;;3.20;;
11046;SDS011;5576;50.008;10.596;2023-07-20T00:27:49;5.38;;;3.28;;
11046;SDS011;5576;50.008;10.596;2023-07-20T00:30:16;3.97;;;3.17;;
11046;SDS011;5576;50.008;10.596;2023-07-20T00:32:42;4.90;;;3.10;;
11046;SDS011;5576;50.008;10.596;2023-07-20T00:35:09;4.72;;;3.38;;
11046;SDS011;5576;50.008;10.596;2023-07-20T00:37:35;5.30;;;3.33;;
11046;SDS011;5576;50.008;10.596;2023-07-20T00:40:04;4.38;;;3.40;;
11046;SDS011;5576;50.008;10.596;2023-07-20T00:42:33;6.10;;;3.40;;
11046;SDS011;5576;50.008;10.596;2023-07-20T00:44:59;5.80;;;3.63;;
11046;SDS011;5576;50.008;10.596;2023-07-20T00:47:25;5.80;;;3.70;;
11046;SDS011;5576;50.008;10.596;2023-07-20T00:49:52;4.93;;;3.80;;
11046;SDS011;5576;50.008;10.596;2023-07-20T00:52:20;4.25;;;3.13;;
11046;SDS011;5576;50.008;10.596;2023-07-20T00:54:47;5.13;;;3.38;;
11046;SDS011;5576;50.008;10.596;2023-07-20T00:57:14;4.85;;;3.13;;
11046;SDS011;5576;50.008;10.596;2023-07-20T00:59:40;4.05;;;3.13;;
11046;SDS011;5576;50.008;10.596;2023-07-20T01:02:07;4.87;;;3.33;;
11046;SDS011;5576;50.008;10.596;2023-07-20T01:04:34;5.10;;;3.25;;
11046;SDS011;5576;50.008;10.596;2023-07-20T01:09:48;5.88;;;3.45;;
11046;SDS011;5576;50.008;10.596;2023-07-20T01:12:27;6.60;;;3.10;;
11046;SDS011;5576;50.008;10.596;2023-07-20T01:15:01;5.35;;;3.47;;
11046;SDS011;5576;50.008;10.596;2023-07-20T01:17:27;5.53;;;3.25;;
11046;SDS011;5576;50.008;10.596;2023-07-20T01:19:53;4.53;;;3.17;;
11046;SDS011;5576;50.008;10.596;2023-07-20T01:30:43;6.60;;;3.47;;
11046;SDS011;5576;50.008;10.596;2023-07-20T01:33:12;4.03;;;3.00;;
11046;SDS011;5576;50.008;10.596;2023-07-20T01:35:39;8.02;;;3.55;;
11046;SDS011;5576;50.008;10.596;2023-07-20T01:38:08;5.90;;;3.30;;
11046;SDS011;5576;50.008;10.596;2023-07-20T01:40:34;4.30;;;2.90;;
11046;SDS011;5576;50.008;10.596;2023-07-20T01:43:02;4.22;;;2.97;;
11046;SDS011;5576;50.008;10.596;2023-07-20T01:45:28;4.68;;;3.22;;
11046;SDS011;5576;50.008;10.596;2023-07-20T01:47:56;4.07;;;2.90;;
11046;SDS011;5576;50.008;10.596;2023-07-20T01:50:22;5.22;;;3.13;;
11046;SDS011;5576;50.008;10.596;2023-07-20T01:52:48;4.03;;;3.13;;
11046;SDS011;5576;50.008;10.596;2023-07-20T01:55:14;4.85;;;3.50;;
11046;SDS011;5576;50.008;10.596;2023-07-20T01:57:40;4.65;;;3.08;;
11046;SDS011;5576;50.008;10.596;2023-07-20T02:00:07;4.45;;;3.20;;
11046;SDS011;5576;50.008;10.596;2023-07-20T02:02:42;4.95;;;3.30;;
11046;SDS011;5576;50.008;10.596;2023-07-20T02:05:09;4.85;;;3.42;;
11046;SDS011;5576;50.008;10.596;2023-07-20T02:07:35;4.97;;;3.10;;
11046;SDS011;5576;50.008;10.596;2023-07-20T02:10:01;4.97;;;3.35;;
11046;SDS011;5576;50.008;10.596;2023-07-20T02:12:28;4.78;;;3.17;;
11046;SDS011;5576;50.008;10.596;2023-07-20T02:14:54;4.53;;;3.40;;
11046;SDS011;5576;50.008;10.596;2023-07-20T02:17:20;4.75;;;3.53;;
11046;SDS011;5576;50.008;10.596;2023-07-20T02:19:46;5.57;;;3.20;;
11046;SDS011;5576;50.008;10.596;2023-07-20T02:22:15;4.93;;;3.15;;
11046;SDS011;5576;50.008;10.596;2023-07-20T02:24:41;3.72;;;3.15;;
11046;SDS011;5576;50.008;10.596;2023-07-20T02:27:08;4.95;;;3.58;;
11046;SDS011;5576;50.008;10.596;2023-07-20T02:29:34;5.60;;;3.45;;
11046;SDS011;5576;50.008;10.596;2023-07-20T02:32:01;4.13;;;3.20;;
11046;SDS011;5576;50.008;10.596;2023-07-20T02:34:27;5.10;;;3.58;;
11046;SDS011;5576;50.008;10.596;2023-07-20T02:36:54;4.95;;;3.90;;
11046;SDS011;5576;50.008;10.596;2023-07-20T02:39:22;5.20;;;4.10;;
11046;SDS011;5576;50.008;10.596;2023-07-20T02:41:49;4.90;;;3.80;;
11046;SDS011;5576;50.008;10.596;2023-07-20T02:44:15;5.60;;;3.75;;
11046;SDS011;5576;50.008;10.596;2023-07-20T02:46:41;3.67;;;3.28;;
11046;SDS011;5576;50.008;10.596;2023-07-20T02:49:07;6.00;;;3.60;;
11046;SDS011;5576;50.008;10.596;2023-07-20T02:51:34;5.55;;;3.75;;
11046;SDS011;5576;50.008;10.596;2023-07-20T02:54:01;6.22;;;3.67;;
11046;SDS011;5576;50.008;10.596;2023-07-20T02:56:27;5.78;;;3.83;;
11046;SDS011;5576;50.008;10.596;2023-07-20T02:58:53;4.82;;;3.33;;
11046;SDS011;5576;50.008;10.596;2023-07-20T03:01:19;5.32;;;3.42;;
11046;SDS011;5576;50.008;10.596;2023-07-20T03:03:45;4.78;;;3.58;;
11046;SDS011;5576;50.008;10.596;2023-07-20T03:06:12;6.45;;;3.75;;
11046;SDS011;5576;50.008;10.596;2023-07-20T03:08:40;5.80;;;3.63;;
11046;SDS011;5576;50.008;10.596;2023-07-20T03:11:06;6.20;;;3.80;;
11046;SDS011;5576;50.008;10.596;2023-07-20T03:13:33;6.00;;;3.75;;
11046;SDS011;5576;50.008;10.596;2023-07-20T03:15:59;4.72;;;3.47;;
11046;SDS011;5576;50.008;10.596;2023-07-20T03:18:27;5.95;;;3.60;;
11046;SDS011;5576;50.008;10.596;2023-07-20T03:20:54;4.70;;;3.27;;
11046;SDS011;5576;50.008;10.596;2023-07-20T03:23:20;5.30;;;3.80;;
11046;SDS011;5576;50.008;10.596;2023-07-20T03:25:46;4.70;;;3.80;;
11046;SDS011;5576;50.008;10.596;2023-07-20T03:28:12;4.15;;;3.30;;
11046;SDS011;5576;50.008;10.596;2023-07-20T03:30:38;5.10;;;3.80;;
11046;SDS011;5576;50.008;10.596;2023-07-20T03:33:04;5.68;;;3.78;;
11046;SDS011;5576;50.008;10.596;2023-07-20T03:35:30;5.72;;;3.42;;
11046;SDS011;5576;50.008;10.596;2023-07-20T03:37:56;4.70;;;3.28;;
11046;SDS011;5576;50.008;10.596;2023-07-20T03:40:22;5.80;;;3.58;;
11046;SDS011;5576;50.008;10.596;2023-07-20T03:42:50;4.55;;;3.40;;
11046;SDS011;5576;50.008;10.596;2023-07-20T03:45:17;3.63;;;3.20;;
11046;SDS011;5576;50.008;10.596;2023-07-20T03:47:43;6.55;;;3.88;;
11046;SDS011;5576;50.008;10.596;2023-07-20T03:50:09;5.18;;;3.30;;
11046;SDS011;5576;50.008;10.596;2023-07-20T03:52:36;5.33;;;3.50;;
11046;SDS011;5576;50.008;10.596;2023-07-20T03:55:02;7.53;;;3.60;;
11046;SDS011;5576;50.008;10.596;2023-07-20T03:57:28;5.28;;;3.60;;
11046;SDS011;5576;50.008;10.596;2023-07-20T03:59:57;4.88;;;3.55;;
11046;SDS011;5576;50.008;10.596;2023-07-20T04:02:23;5.00;;;3.90;;
11046;SDS011;5576;50.008;10.596;2023-07-20T04:04:50;5.15;;;4.00;;
11046;SDS011;5576;50.008;10.596;2023-07-20T04:07:16;5.60;;;3.60;;
11046;SDS011;5576;50.008;10.596;2023-07-20T04:09:43;5.30;;;3.90;;
11046;SDS011;5576;50.008;10.596;2023-07-20T04:12:09;7.43;;;3.60;;
11046;SDS011;5576;50.008;10.596;2023-07-20T04:14:35;5.03;;;3.40;;
11046;SDS011;5576;50.008;10.596;2023-07-20T04:17:01;5.85;;;3.60;;
11046;SDS011;5576;50.008;10.596;2023-07-20T04:19:27;4.72;;;3.60;;
11046;SDS011;5576;50.008;10.596;2023-07-20T04:21:53;6.05;;;3.75;;
11046;SDS011;5576;50.008;10.596;2023-07-20T04:24:19;4.55;;;3.53;;
11046;SDS011;5576;50.008;10.596;2023-07-20T04:26:46;5.40;;;3.30;;
11046;SDS011;5576;50.008;10.596;2023-07-20T04:29:12;5.65;;;3.50;;
11046;SDS011;5576;50.008;10.596;2023-07-20T04:31:41;3.60;;;3.20;;
11046;SDS011;5576;50.008;10.596;2023-07-20T04:34:07;4.82;;;3.78;;
11046;SDS011;5576;50.008;10.596;2023-07-20T04:36:35;4.70;;;3.67;;
11046;SDS011;5576;50.008;10.596;2023-07-20T04:39:01;5.53;;;3.58;;
11046;SDS011;5576;50.008;10.596;2023-07-20T04:41:34;3.93;;;3.40;;
11046;SDS011;5576;50.008;10.596;2023-07-20T04:44:00;4.70;;;3.70;;
11046;SDS011;5576;50.008;10.596;2023-07-20T04:46:29;6.45;;;3.90;;
11046;SDS011;5576;50.008;10.596;2023-07-20T04:48:57;5.60;;;3.38;;
11046;SDS011;5576;50.008;10.596;2023-07-20T04:51:25;4.78;;;3.83;;
11046;SDS011;5576;50.008;10.596;2023-07-20T04:53:53;6.93;;;3.75;;
11046;SDS011;5576;50.008;10.596;2023-07-20T04:56:20;4.47;;;3.80;;
11046;SDS011;5576;50.008;10.596;2023-07-20T04:58:48;5.50;;;4.00;;
11046;SDS011;5576;50.008;10.596;2023-07-20T05:01:15;5.45;;;3.53;;
11046;SDS011;5576;50.008;10.596;2023-07-20T05:03:41;5.68;;;3.83;;
11046;SDS011;5576;50.008;10.596;2023-07-20T05:06:09;6.68;;;4.20;;
11046;SDS011;5576;50.008;10.596;2023-07-20T05:08:35;6.28;;;4.10;;
11046;SDS011;5576;50.008;10.596;2023-07-20T05:11:01;5.90;;;3.70;;
11046;SDS011;5576;50.008;10.596;2023-07-20T05:13:27;5.13;;;3.58;;
11046;SDS011;5576;50.008;10.596;2023-07-20T05:15:53;5.37;;;3.80;;
11046;SDS011;5576;50.008;10.596;2023-07-20T05:18:20;4.53;;;3.60;;
11046;SDS011;5576;50.008;10.596;2023-07-20T05:20:48;5.00;;;3.60;;
11046;SDS011;5576;50.008;10.596;2023-07-20T05:23:18;4.10;;;3.33;;
11046;SDS011;5576;50.008;10.596;2023-07-20T05:25:45;5.33;;;3.53;;
11046;SDS011;5576;50.008;10.596;2023-07-20T05:28:14;5.60;;;3.60;;
11046;SDS011;5576;50.008;10.596;2023-07-20T05:30:40;5.00;;;3.80;;
11046;SDS011;5576;50.008;10.596;2023-07-20T05:33:07;4.28;;;3.65;;
11046;SDS011;5576;50.008;10.596;2023-07-20T05:35:33;4.65;;;3.20;;
11046;SDS011;5576;50.008;10.596;2023-07-20T05:37:59;6.68;;;3.25;;
11046;SDS011;5576;50.008;10.596;2023-07-20T05:40:25;5.25;;;2.92;;
11046;SDS011;5576;50.008;10.596;2023-07-20T05:42:51;3.42;;;3.00;;
11046;SDS011;5576;50.008;10.596;2023-07-20T05:45:19;4.05;;;2.83;;
11046;SDS011;5576;50.008;10.596;2023-07-20T05:47:45;3.97;;;2.90;;
11046;SDS011;5576;50.008;10.596;2023-07-20T05:50:12;5.50;;;3.10;;
11046;SDS011;5576;50.008;10.596;2023-07-20T05:52:38;4.30;;;3.20;;
11046;SDS011;5576;50.008;10.596;2023-07-20T05:55:04;5.47;;;3.00;;
11046;SDS011;5576;50.008;10.596;2023-07-20T05:57:30;4.47;;;3.13;;
11046;SDS011;5576;50.008;10.596;2023-07-20T05:59:57;3.97;;;2.90;;
11046;SDS011;5576;50.008;10.596;2023-07-20T06:02:23;3.70;;;2.70;;
11046;SDS011;5576;50.008;10.596;2023-07-20T06:04:49;4.38;;;3.22;;
11046;SDS011;5576;50.008;10.596;2023-07-20T06:07:15;6.72;;;2.83;;
11046;SDS011;5576;50.008;10.596;2023-07-20T06:09:41;4.03;;;3.10;;
11046;SDS011;5576;50.008;10.596;2023-07-20T06:12:07;4.43;;;3.20;;
11046;SDS011;5576;50.008;10.596;2023-07-20T06:14:34;4.03;;;3.20;;
11046;SDS011;5576;50.008;10.596;2023-07-20T06:17:00;3.73;;;2.70;;
11046;SDS011;5576;50.008;10.596;2023-07-20T06:19:26;3.28;;;2.83;;
11046;SDS011;5576;50.008;10.596;2023-07-20T06:21:52;4.07;;;3.20;;
11046;SDS011;5576;50.008;10.596;2023-07-20T06:24:18;4.13;;;3.10;;
11046;SDS011;5576;50.008;10.596;2023-07-20T06:26:44;4.65;;;3.35;;
11046;SDS011;5576;50.008;10.596;2023-07-20T06:29:10;4.00;;;2.90;;
11046;SDS011;5576;50.008;10.596;2023-07-20T06:31:36;4.78;;;3.10;;
11046;SDS011;5576;50.008;10.596;2023-07-20T06:34:03;4.00;;;3.20;;
11046;SDS011;5576;50.008;10.596;2023-07-20T06:36:29;5.20;;;3.15;;
11046;SDS011;5576;50.008;10.596;2023-07-20T06:38:55;4.67;;;3.00;;
11046;SDS011;5576;50.008;10.596;2023-07-20T06:41:22;3.67;;;2.90;;
11046;SDS011;5576;50.008;10.596;2023-07-20T06:43:48;3.28;;;2.55;;
11046;SDS011;5576;50.008;10.596;2023-07-20T06:46:14;4.03;;;2.80;;
11046;SDS011;5576;50.008;10.596;2023-07-20T06:48:40;3.42;;;2.97;;
11046;SDS011;5576;50.008;10.596;2023-07-20T06:51:06;3.90;;;2.80;;
11046;SDS011;5576;50.008;10.596;2023-07-20T06:53:32;3.22;;;2.70;;
11046;SDS011;5576;50.008;10.596;2023-07-20T06:55:58;3.22;;;2.50;;
11046;SDS011;5576;50.008;10.596;2023-07-20T06:58:25;3.72;;;2.55;;
11046;SDS011;5576;50.008;10.596;2023-07-20T07:00:51;3.30;;;2.80;;
11046;SDS011;5576;50.008;10.596;2023-07-20T07:03:17;4.20;;;2.40;;
11046;SDS011;5576;50.008;10.596;2023-07-20T07:05:44;3.28;;;2.38;;
11046;SDS011;5576;50.008;10.596;2023-07-20T07:08:10;3.70;;;2.70;;
11046;SDS011;5576;50.008;10.596;2023-07-20T07:10:38;3.53;;;2.57;;
11046;SDS011;5576;50.008;10.596;2023-07-20T07:13:04;4.10;;;2.58;;
11046;SDS011;5576;50.008;10.596;2023-07-20T07:15:30;4.35;;;2.70;;
11046;SDS011;5576;50.008;10.596;2023-07-20T07:17:57;3.42;;;2.63;;
11046;SDS011;5576;50.008;10.596;2023-07-20T07:20:25;4.50;;;2.60;;
11046;SDS011;5576;50.008;10.596;2023-07-20T07:22:51;2.90;;;2.33;;
11046;SDS011;5576;50.008;10.596;2023-07-20T07:25:18;3.28;;;2.40;;
11046;SDS011;5576;50.008;10.596;2023-07-20T07:27:44;3.47;;;2.30;;
11046;SDS011;5576;50.008;10.596;2023-07-20T07:30:10;4.88;;;2.60;;
11046;SDS011;5576;50.008;10.596;2023-07-20T07:32:36;4.70;;;2.40;;
11046;SDS011;5576;50.008;10.596;2023-07-20T07:35:03;3.22;;;2.20;;
11046;SDS011;5576;50.008;10.596;2023-07-20T07:37:29;3.22;;;2.30;;
11046;SDS011;5576;50.008;10.596;2023-07-20T07:39:55;2.72;;;2.08;;
11046;SDS011;5576;50.008;10.596;2023-07-20T07:42:22;3.27;;;2.10;;
11046;SDS011;5576;50.008;10.596;2023-07-20T07:44:48;3.70;;;2.40;;
11046;SDS011;5576;50.008;10.596;2023-07-20T07:47:14;3.20;;;2.10;;
11046;SDS011;5576;50.008;10.596;2023-07-20T07:49:41;4.40;;;2.20;;
11046;SDS011;5576;50.008;10.596;2023-07-20T07:52:07;3.67;;;2.10;;
11046;SDS011;5576;50.008;10.596;2023-07-20T07:54:33;3.53;;;2.42;;
11046;SDS011;5576;50.008;10.596;2023-07-20T07:56:59;3.20;;;2.53;;
11046;SDS011;5576;50.008;10.596;2023-07-20T07:59:26;3.50;;;2.50;;
11046;SDS011;5576;50.008;10.596;2023-07-20T08:01:52;3.95;;;2.42;;
11046;SDS011;5576;50.008;10.596;2023-07-20T08:04:18;3.95;;;2.15;;
11046;SDS011;5576;50.008;10.596;2023-07-20T08:06:44;3.70;;;2.38;;
11046;SDS011;5576;50.008;10.596;2023-07-20T08:09:10;3.45;;;2.45;;
11046;SDS011;5576;50.008;10.596;2023-07-20T08:11:38;3.40;;;2.20;;
11046;SDS011;5576;50.008;10.596;2023-07-20T08:14:04;3.47;;;2.28;;
11046;SDS011;5576;50.008;10.596;2023-07-20T08:16:30;2.97;;;2.00;;
11046;SDS011;5576;50.008;10.596;2023-07-20T08:18:56;3.43;;;2.30;;
11046;SDS011;5576;50.008;10.596;2023-07-20T08:21:22;3.00;;;2.10;;
11046;SDS011;5576;50.008;10.596;2023-07-20T08:23:47;3.00;;;2.03;;
11046;SDS011;5576;50.008;10.596;2023-07-20T08:26:13;2.90;;;2.00;;
11046;SDS011;5576;50.008;10.596;2023-07-20T08:28:39;2.78;;;1.95;;
11046;SDS011;5576;50.008;10.596;2023-07-20T08:31:05;2.22;;;2.00;;
11046;SDS011;5576;50.008;10.596;2023-07-20T08:33:32;3.83;;;2.40;;
11046;SDS011;5576;50.008;10.596;2023-07-20T08:35:59;3.47;;;2.25;;
11046;SDS011;5576;50.008;10.596;2023-07-20T08:38:26;4.05;;;2.15;;
11046;SDS011;5576;50.008;10.596;2023-07-20T08:40:52;3.43;;;2.10;;
11046;SDS011;5576;50.008;10.596;2023-07-20T08:43:20;3.78;;;2.13;;
11046;SDS011;5576;50.008;10.596;2023-07-20T08:45:49;3.22;;;2.00;;
11046;SDS011;5576;50.008;10.596;2023-07-20T08:48:16;3.17;;;2.30;;
11046;SDS011;5576;50.008;10.596;2023-07-20T08:50:45;2.70;;;2.00;;
11046;SDS011;5576;50.008;10.596;2023-07-20T08:53:12;4.20;;;1.75;;
11046;SDS011;5576;50.008;10.596;2023-07-20T08:55:40;3.15;;;2.22;;
11046;SDS011;5576;50.008;10.596;2023-07-20T08:58:08;2.60;;;1.90;;
11046;SDS011;5576;50.008;10.596;2023-07-20T09:00:35;2.88;;;1.90;;
11046;SDS011;5576;50.008;10.596;2023-07-20T09:03:01;2.88;;;2.28;;
11046;SDS011;5576;50.008;10.596;2023-07-20T09:05:28;2.20;;;1.90;;
11046;SDS011;5576;50.008;10.596;2023-07-20T09:07:55;2.80;;;1.83;;
11046;SDS011;5576;50.008;10.596;2023-07-20T09:10:23;3.13;;;1.92;;
11046;SDS011;5576;50.008;10.596;2023-07-20T09:12:49;3.72;;;2.13;;
11046;SDS011;5576;50.008;10.596;2023-07-20T09:15:16;2.65;;;1.90;;
11046;SDS011;5576;50.008;10.596;2023-07-20T09:20:16;4.47;;;2.58;;
11046;SDS011;5576;50.008;10.596;2023-07-20T09:22:43;3.28;;;1.90;;
11046;SDS011;5576;50.008;10.596;2023-07-20T09:25:11;3.53;;;1.88;;
11046;SDS011;5576;50.008;10.596;2023-07-20T09:27:39;2.97;;;1.92;;
11046;SDS011;5576;50.008;10.596;2023-07-20T09:30:06;3.80;;;1.90;;
11046;SDS011;5576;50.008;10.596;2023-07-20T09:32:42;3.85;;;1.90;;
11046;SDS011;5576;50.008;10.596;2023-07-20T09:35:17;2.88;;;2.10;;
11046;SDS011;5576;50.008;10.596;2023-07-20T09:37:46;2.25;;;1.80;;
11046;SDS011;5576;50.008;10.596;2023-07-20T09:40:15;2.17;;;1.67;;
11046;SDS011;5576;50.008;10.596;2023-07-20T09:42:42;3.58;;;2.00;;
11046;SDS011;5576;50.008;10.596;2023-07-20T09:45:08;3.15;;;1.77;;
11046;SDS011;5576;50.008;10.596;2023-07-20T09:47:35;2.72;;;2.00;;
11046;SDS011;5576;50.008;10.596;2023-07-20T09:50:03;2.72;;;1.92;;
11046;SDS011;5576;50.008;10.596;2023-07-20T09:52:30;2.97;;;1.80;;
11046;SDS011;5576;50.008;10.596;2023-07-20T09:54:57;3.60;;;1.80;;
11046;SDS011;5576;50.008;10.596;2023-07-20T09:57:23;3.03;;;1.80;;
11046;SDS011;5576;50.008;10.596;2023-07-20T09:59:51;3.58;;;1.90;;
11046;SDS011;5576;50.008;10.596;2023-07-20T10:02:21;1.93;;;1.70;;
11046;SDS011;5576;50.008;10.596;2023-07-20T10:04:51;2.58;;;1.73;;
11046;SDS011;5576;50.008;10.596;2023-07-20T10:07:19;2.78;;;1.88;;
11046;SDS011;5576;50.008;10.596;2023-07-20T10:09:46;2.97;;;1.90;;
11046;SDS011;5576;50.008;10.596;2023-07-20T10:12:13;2.38;;;1.85;;
11046;SDS011;5576;50.008;10.596;2023-07-20T10:14:42;3.38;;;1.90;;
11046;SDS011;5576;50.008;10.596;2023-07-20T10:17:17;4.00;;;2.13;;
11046;SDS011;5576;50.008;10.596;2023-07-20T10:19:44;4.20;;;1.90;;
11046;SDS011;5576;50.008;10.596;2023-07-20T10:22:14;2.85;;;1.83;;
11046;SDS011;5576;50.008;10.596;2023-07-20T10:24:45;2.50;;;1.80;;
11046;SDS011;5576;50.008;10.596;2023-07-20T10:27:12;3.20;;;2.00;;
11046;SDS011;5576;50.008;10.596;2023-07-20T10:29:40;3.05;;;1.90;;
11046;SDS011;5576;50.008;10.596;2023-07-20T10:32:08;2.90;;;2.05;;
11046;SDS011;5576;50.008;10.596;2023-07-20T10:34:34;3.63;;;2.10;;
11046;SDS011;5576;50.008;10.596;2023-07-20T10:37:00;2.70;;;2.00;;
11046;SDS011;5576;50.008;10.596;2023-07-20T10:39:27;3.33;;;2.00;;
11046;SDS011;5576;50.008;10.596;2023-07-20T10:42:05;2.85;;;1.90;;
11046;SDS011;5576;50.008;10.596;2023-07-20T10:44:32;3.47;;;2.00;;
11046;SDS011;5576;50.008;10.596;2023-07-20T10:46:59;2.50;;;1.73;;
11046;SDS011;5576;50.008;10.596;2023-07-20T10:49:26;2.25;;;1.92;;
11046;SDS011;5576;50.008;10.596;2023-07-20T10:51:56;3.75;;;2.15;;
11046;SDS011;5576;50.008;10.596;2023-07-20T10:56:54;3.50;;;1.70;;
11046;SDS011;5576;50.008;10.596;2023-07-20T11:01:56;3.03;;;1.83;;
11046;SDS011;5576;50.008;10.596;2023-07-20T11:07:35;2.17;;;1.60;;
11046;SDS011;5576;50.008;10.596;2023-07-20T11:10:19;3.00;;;1.60;;
11046;SDS011;5576;50.008;10.596;2023-07-20T11:13:19;2.80;;;1.70;;
11046;SDS011;5576;50.008;10.596;2023-07-20T11:16:01;3.25;;;1.67;;
11046;SDS011;5576;50.008;10.596;2023-07-20T11:18:29;3.08;;;1.60;;
11046;SDS011;5576;50.008;10.596;2023-07-20T11:20:57;2.40;;;1.50;;
11046;SDS011;5576;50.008;10.596;2023-07-20T11:23:23;2.25;;;1.80;;
11046;SDS011;5576;50.008;10.596;2023-07-20T11:25:49;3.47;;;1.88;;
11046;SDS011;5576;50.008;10.596;2023-07-20T11:28:15;2.63;;;1.67;;
11046;SDS011;5576;50.008;10.596;2023-07-20T11:30:41;2.38;;;1.83;;
11046;SDS011;5576;50.008;10.596;2023-07-20T11:33:08;3.57;;;1.70;;
11046;SDS011;5576;50.008;10.596;2023-07-20T11:35:50;3.63;;;1.90;;
11046;SDS011;5576;50.008;10.596;2023-07-20T11:38:16;2.50;;;1.80;;
11046;SDS011;5576;50.008;10.596;2023-07-20T11:40:42;2.70;;;1.90;;
11046;SDS011;5576;50.008;10.596;2023-07-20T11:43:09;2.72;;;1.80;;
11046;SDS011;5576;50.008;10.596;2023-07-20T11:45:37;2.60;;;1.80;;
11046;SDS011;5576;50.008;10.596;2023-07-20T11:48:03;3.13;;;1.73;;
11046;SDS011;5576;50.008;10.596;2023-07-20T11:50:30;2.65;;;1.60;;
11046;SDS011;5576;50.008;10.596;2023-07-20T11:52:56;2.27;;;1.50;;
11046;SDS011;5576;50.008;10.596;2023-07-20T11:55:22;3.40;;;1.60;;
11046;SDS011;5576;50.008;10.596;2023-07-20T11:58:04;3.10;;;1.45;;
11046;SDS011;5576;50.008;10.596;2023-07-20T12:00:31;2.78;;;1.40;;
11046;SDS011;5576;50.008;10.596;2023-07-20T12:02:58;1.50;;;1.30;;
11046;SDS011;5576;50.008;10.596;2023-07-20T12:05:24;1.58;;;1.40;;
11046;SDS011;5576;50.008;10.596;2023-07-20T12:07:51;1.58;;;1.45;;
11046;SDS011;5576;50.008;10.596;2023-07-20T12:10:23;1.60;;;1.23;;
11046;SDS011;5576;50.008;10.596;2023-07-20T12:12:50;1.70;;;1.30;;
11046;SDS011;5576;50.008;10.596;2023-07-20T12:15:17;2.33;;;1.30;;
11046;SDS011;5576;50.008;10.596;2023-07-20T12:17:46;1.80;;;1.48;;
11046;SDS011;5576;50.008;10.596;2023-07-20T12:20:39;2.00;;;1.40;;
11046;SDS011;5576;50.008;10.596;2023-07-20T12:36:23;2.03;;;1.50;;
11046;SDS011;5576;50.008;10.596;2023-07-20T12:39:32;3.53;;;1.40;;
11046;SDS011;5576;50.008;10.596;2023-07-20T12:42:30;1.90;;;1.30;;
11046;SDS011;5576;50.008;10.596;2023-07-20T12:45:31;2.10;;;1.40;;
11046;SDS011;5576;50.008;10.596;2023-07-20T12:48:55;1.38;;;1.20;;
11046;SDS011;5576;50.008;10.596;2023-07-20T12:52:01;2.50;;;1.30;;
11046;SDS011;5576;50.008;10.596;2023-07-20T12:54:40;1.52;;;1.33;;
11046;SDS011;5576;50.008;10.596;2023-07-20T12:57:22;1.83;;;1.30;;
11046;SDS011;5576;50.008;10.596;2023-07-20T12:59:47;2.00;;;1.15;;
11046;SDS011;5576;50.008;10.596;2023-07-20T13:02:13;1.70;;;1.20;;
11046;SDS011;5576;50.008;10.596;2023-07-20T13:04:39;2.00;;;1.40;;
11046;SDS011;5576;50.008;10.596;2023-07-20T13:07:05;2.15;;;1.40;;
11046;SDS011;5576;50.008;10.596;2023-07-20T13:09:32;2.10;;;1.33;;
11046;SDS011;5576;50.008;10.596;2023-07-20T13:11:58;1.70;;;1.20;;
11046;SDS011;5576;50.008;10.596;2023-07-20T13:14:26;2.20;;;1.40;;
11046;SDS011;5576;50.008;10.596;2023-07-20T13:16:55;2.13;;;1.33;;
11046;SDS011;5576;50.008;10.596;2023-07-20T13:19:21;1.95;;;1.20;;
11046;SDS011;5576;50.008;10.596;2023-07-20T13:21:47;1.48;;;1.20;;
11046;SDS011;5576;50.008;10.596;2023-07-20T13:24:14;1.80;;;1.27;;
11046;SDS011;5576;50.008;10.596;2023-07-20T13:26:40;1.70;;;1.27;;
11046;SDS011;5576;50.008;10.596;2023-07-20T13:29:06;1.85;;;1.20;;
11046;SDS011;5576;50.008;10.596;2023-07-20T13:31:32;2.10;;;1.20;;
11046;SDS011;5576;50.008;10.596;2023-07-20T13:33:58;2.13;;;1.35;;
11046;SDS011;5576;50.008;10.596;2023-07-20T13:36:24;2.22;;;1.10;;
11046;SDS011;5576;50.008;10.596;2023-07-20T13:38:50;2.10;;;1.30;;
11046;SDS011;5576;50.008;10.596;2023-07-20T13:41:15;1.77;;;1.10;;
11046;SDS011;5576;50.008;10.596;2023-07-20T13:43:41;1.77;;;1.30;;
11046;SDS011;5576;50.008;10.596;2023-07-20T13:46:07;1.65;;;1.20;;
11046;SDS011;5576;50.008;10.596;2023-07-20T13:48:33;2.15;;;1.23;;
11046;SDS011;5576;50.008;10.596;2023-07-20T13:50:58;2.15;;;1.20;;
11046;SDS011;5576;50.008;10.596;2023-07-20T13:53:24;2.00;;;1.30;;
11046;SDS011;5576;50.008;10.596;2023-07-20T13:55:50;1.33;;;1.23;;
11046;SDS011;5576;50.008;10.596;2023-07-20T13:58:17;1.58;;;1.20;;
11046;SDS011;5576;50.008;10.596;2023-07-20T14:00:43;1.40;;;1.20;;
11046;SDS011;5576;50.008;10.596;2023-07-20T14:03:08;1.80;;;1.20;;
11046;SDS011;5576;50.008;10.596;2023-07-20T14:05:34;1.40;;;1.17;;
11046;SDS011;5576;50.008;10.596;2023-07-20T14:08:00;1.40;;;1.30;;
11046;SDS011;5576;50.008;10.596;2023-07-20T14:10:26;1.17;;;1.00;;
11046;SDS011;5576;50.008;10.596;2023-07-20T14:12:52;1.23;;;1.10;;
11046;SDS011;5576;50.008;10.596;2023-07-20T14:15:17;1.20;;;1.10;;
11046;SDS011;5576;50.008;10.596;2023-07-20T14:17:44;1.60;;;1.15;;
11046;SDS011;5576;50.008;10.596;2023-07-20T14:20:10;1.92;;;1.05;;
11046;SDS011;5576;50.008;10.596;2023-07-20T14:22:36;1.50;;;1.00;;
11046;SDS011;5576;50.008;10.596;2023-07-20T14:25:02;1.63;;;1.03;;
11046;SDS011;5576;50.008;10.596;2023-07-20T14:27:28;2.05;;;1.00;;
11046;SDS011;5576;50.008;10.596;2023-07-20T14:29:53;2.07;;;1.00;;
11046;SDS011;5576;50.008;10.596;2023-07-20T14:32:20;2.33;;;1.30;;
11046;SDS011;5576;50.008;10.596;2023-07-20T14:34:45;1.67;;;1.40;;
11046;SDS011;5576;50.008;10.596;2023-07-20T14:37:11;1.65;;;1.38;;
11046;SDS011;5576;50.008;10.596;2023-07-20T14:39:38;1.55;;;1.25;;
11046;SDS011;5576;50.008;10.596;2023-07-20T14:42:04;2.00;;;1.30;;
11046;SDS011;5576;50.008;10.596;2023-07-20T14:44:33;2.03;;;1.40;;
11046;SDS011;5576;50.008;10.596;2023-07-20T14:46:59;1.50;;;1.15;;
11046;SDS011;5576;50.008;10.596;2023-07-20T14:49:26;2.17;;;1.20;;
11046;SDS011;5576;50.008;10.596;2023-07-20T14:51:52;2.00;;;1.10;;
11046;SDS011;5576;50.008;10.596;2023-07-20T14:54:18;1.25;;;1.13;;
11046;SDS011;5576;50.008;10.596;2023-07-20T14:56:49;1.73;;;1.20;;
11046;SDS011;5576;50.008;10.596;2023-07-20T14:59:17;1.60;;;1.40;;
11046;SDS011;5576;50.008;10.596;2023-07-20T15:01:44;2.10;;;1.20;;
11046;SDS011;5576;50.008;10.596;2023-07-20T15:04:12;1.30;;;1.20;;
11046;SDS011;5576;50.008;10.596;2023-07-20T15:06:39;1.55;;;1.30;;
11046;SDS011;5576;50.008;10.596;2023-07-20T15:09:05;1.65;;;1.15;;
11046;SDS011;5576;50.008;10.596;2023-07-20T15:11:31;1.60;;;1.30;;
11046;SDS011;5576;50.008;10.596;2023-07-20T15:13:56;1.27;;;1.10;;
11046;SDS011;5576;50.008;10.596;2023-07-20T15:16:23;1.20;;;1.10;;
11046;SDS011;5576;50.008;10.596;2023-07-20T15:18:49;1.25;;;1.10;;
11046;SDS011;5576;50.008;10.596;2023-07-20T15:21:15;1.20;;;1.10;;
11046;SDS011;5576;50.008;10.596;2023-07-20T15:23:42;2.28;;;1.35;;
11046;SDS011;5576;50.008;10.596;2023-07-20T15:26:08;1.70;;;1.10;;